Cato Island, Australia
Current Conditions -  °F | °C
As of 9:00 AM on Saturday 25 Oct 2014 (Local Time) from YBUD Reporting Station
Scattered Clouds Scattered Clouds  
Wind Chill: 77°   Ceiling: Unl
Heat Index: 79°   Visibility: 6mi
Dew Point: 55°   Wind: 7mph
Humidity: 47%   Direction: 340°NNW
Pressure: 30.18"   Gusts: NA
Location:  23.25°S, 155.53°E
Report Text: YBUD 242300Z AUTO 34006KT 320V030 9999 // SCT035 25/13 Q1022
Loading
Personal Weather Stations






























Interactive Weather Map
Tropical Storm Tracking
New forecast layout! Learn more

10-Day Weather Forecast

Advertisements
Track Severe Weather on mobile